Time;durP1;ratioP1;P1;durP2;ratioP2;P2;SDS_P1;SDS_P2;PMS_P1;PMS_P2;Temp;Humidity;BMP_temperature;BMP_pressure;BME280_temperature;BME280_humidity;BME280_pressure;Samples;Min_cycle;Max_cycle;Signal;HPM_P1;HPM_P2
2022/09/19 00:00:52;;;;;;;0.43;0.40;;;9.00;99.90;;;;;;5014886;28;20415;-72
2022/09/19 00:03:17;;;;;;;0.53;0.50;;;9.00;99.90;;;;;;5014857;28;20193;-73
2022/09/19 00:05:43;;;;;;;0.40;0.40;;;8.90;99.90;;;;;;5014797;28;20540;-72
2022/09/19 00:08:09;;;;;;;0.40;0.40;;;8.90;99.90;;;;;;5014805;28;20187;-72
2022/09/19 00:10:42;;;;;;;0.40;0.40;;;8.90;99.90;;;;;;5014590;28;20204;-73
2022/09/19 00:13:08;;;;;;;0.40;0.40;;;8.90;99.90;;;;;;5014831;28;20423;-74
2022/09/19 00:15:36;;;;;;;0.50;0.50;;;8.80;99.90;;;;;;5014486;28;20429;-73
2022/09/19 00:18:02;;;;;;;0.50;0.40;;;8.80;99.90;;;;;;5014576;28;20419;-73
2022/09/19 00:20:28;;;;;;;0.40;0.40;;;8.70;99.90;;;;;;5013607;28;20504;-72
2022/09/19 00:25:38;;;;;;;0.40;0.40;;;8.60;99.90;;;;;;5014224;28;20184;-72
2022/09/19 00:28:03;;;;;;;0.40;0.40;;;8.50;99.90;;;;;;5014334;28;20412;-73
2022/09/19 00:30:29;;;;;;;0.40;0.40;;;8.40;99.90;;;;;;5014250;28;20177;-73
2022/09/19 00:32:54;;;;;;;0.40;0.40;;;8.30;99.90;;;;;;5014228;28;20231;-73
2022/09/19 00:35:20;;;;;;;0.40;0.40;;;8.40;99.90;;;;;;5014250;28;20211;-73
2022/09/19 00:37:45;;;;;;;0.50;0.40;;;8.30;99.90;;;;;;5014147;28;20182;-73
2022/09/19 00:40:11;;;;;;;0.40;0.40;;;8.20;99.90;;;;;;5014086;28;20176;-74
2022/09/19 00:42:36;;;;;;;0.90;0.40;;;8.20;99.90;;;;;;5013829;28;20206;-72
2022/09/19 00:45:14;;;;;;;0.40;0.40;;;8.00;99.90;;;;;;5014081;28;20684;-73
2022/09/19 00:47:46;;;;;;;0.50;0.40;;;8.00;99.90;;;;;;5013982;28;20175;-73
2022/09/19 00:50:19;;;;;;;0.40;0.33;;;8.00;99.90;;;;;;5013956;28;20408;-73
2022/09/19 00:53:11;;;;;;;0.40;0.40;;;7.90;99.90;;;;;;5013946;28;20440;-72
2022/09/19 00:55:39;;;;;;;0.40;0.40;;;7.90;99.90;;;;;;5012459;28;20416;-73
2022/09/19 00:58:18;;;;;;;1.07;0.40;;;7.80;99.90;;;;;;5013955;28;20463;-73
2022/09/19 02:31:26;;;;;;;1.40;0.50;;;7.20;99.90;;;;;;5887444;22;20485;-71
2022/09/19 02:33:54;;;;;;;1.57;0.60;;;7.30;99.90;;;;;;5028928;28;20466;-71
2022/09/19 02:36:41;;;;;;;2.07;0.50;;;7.30;99.90;;;;;;5031106;28;20409;-68
2022/09/19 02:39:29;;;;;;;3.83;0.50;;;7.40;99.90;;;;;;5031481;28;20917;-68
2022/09/19 02:42:20;;;;;;;0.50;0.50;;;7.40;99.90;;;;;;5031591;28;20425;-68
2022/09/19 02:45:08;;;;;;;1.07;0.67;;;7.40;99.90;;;;;;5031412;28;20440;-69
2022/09/19 02:47:40;;;;;;;1.13;0.60;;;7.40;99.90;;;;;;5011359;28;20427;-68
2022/09/19 02:50:30;;;;;;;1.30;0.73;;;7.40;99.90;;;;;;5031373;28;20410;-68
2022/09/19 02:52:58;;;;;;;4.37;0.63;;;7.40;99.90;;;;;;5030466;28;20790;-69
2022/09/19 02:55:30;;;;;;;1.20;0.60;;;7.40;99.90;;;;;;5031133;28;20411;-69
2022/09/19 02:58:02;;;;;;;0.90;0.90;;;7.50;99.90;;;;;;5031589;28;20415;-69
2022/09/19 03:00:29;;;;;;;1.53;0.70;;;7.50;99.90;;;;;;5031492;28;20912;-71
2022/09/19 03:06:57;;;;;;;2.70;0.60;;;7.50;99.90;;;;;;5021881;28;20418;-69
2022/09/19 03:09:27;;;;;;;0.57;0.50;;;7.50;99.90;;;;;;5031207;28;20401;-69
2022/09/19 03:12:08;;;;;;;0.90;0.70;;;7.50;99.90;;;;;;5031023;28;20466;-69
2022/09/19 03:14:35;;;;;;;0.90;0.80;;;7.40;99.90;;;;;;5031129;28;20469;-68
2022/09/19 03:17:02;;;;;;;0.80;0.60;;;7.50;99.90;;;;;;5031178;28;20489;-69
2022/09/19 03:19:30;;;;;;;7.43;0.70;;;7.50;99.90;;;;;;5032611;28;20438;-69
2022/09/19 03:21:58;;;;;;;1.13;0.70;;;7.50;99.90;;;;;;5035151;28;20459;-69
2022/09/19 03:24:24;;;;;;;2.40;0.70;;;7.50;99.90;;;;;;5035180;28;20421;-68
2022/09/19 03:26:49;;;;;;;6.43;0.93;;;7.60;99.90;;;;;;5033827;28;20878;-69
2022/09/19 03:29:16;;;;;;;1.60;0.83;;;7.60;99.90;;;;;;5035014;28;20177;-69
2022/09/19 03:31:46;;;;;;;3.17;0.60;;;7.70;99.90;;;;;;5034754;28;20280;-69
2022/09/19 03:34:12;;;;;;;1.50;0.90;;;7.70;99.90;;;;;;5035242;28;20422;-71
2022/09/19 03:36:40;;;;;;;1.87;0.60;;;7.70;99.90;;;;;;5035123;28;20422;-73
2022/09/19 03:39:06;;;;;;;3.13;1.10;;;7.80;99.90;;;;;;5035529;28;20414;-69
2022/09/19 03:41:32;;;;;;;4.40;0.70;;;7.80;99.90;;;;;;5035258;28;20495;-72
2022/09/19 03:44:02;;;;;;;4.33;0.80;;;7.80;99.90;;;;;;5035781;28;20409;-72
2022/09/19 03:46:32;;;;;;;5.30;1.00;;;7.90;99.90;;;;;;5034989;28;20418;-71
2022/09/19 03:49:03;;;;;;;1.40;0.80;;;7.90;99.90;;;;;;5034096;28;20393;-71
2022/09/19 03:51:30;;;;;;;3.07;0.70;;;7.90;99.90;;;;;;5034869;28;20447;-71
2022/09/19 03:53:56;;;;;;;4.37;0.80;;;7.90;99.90;;;;;;5035157;28;20481;-74
2022/09/19 03:56:22;;;;;;;8.70;1.10;;;7.90;99.90;;;;;;5033211;28;20405;-74
2022/09/19 03:58:48;;;;;;;2.73;0.70;;;8.00;99.90;;;;;;5035026;28;20464;-74
2022/09/19 04:01:14;;;;;;;2.20;0.90;;;8.10;99.90;;;;;;5034116;28;20446;-74
2022/09/19 04:03:41;;;;;;;4.20;0.83;;;8.10;99.90;;;;;;5033279;28;20270;-74
2022/09/19 04:06:07;;;;;;;2.13;1.60;;;8.20;99.90;;;;;;5034527;28;20393;-71
2022/09/19 04:08:33;;;;;;;3.60;1.00;;;8.20;99.90;;;;;;5035085;28;20422;-71
2022/09/19 04:10:59;;;;;;;4.70;1.23;;;8.20;99.90;;;;;;5034640;28;20459;-71
2022/09/19 04:13:25;;;;;;;2.30;1.20;;;8.30;99.90;;;;;;5034478;28;20172;-71
2022/09/19 04:15:51;;;;;;;3.13;1.10;;;8.40;99.90;;;;;;5034767;28;20275;-72
2022/09/19 04:18:18;;;;;;;6.70;1.17;;;8.40;99.90;;;;;;5033202;28;20435;-72
2022/09/19 04:20:45;;;;;;;11.60;0.90;;;8.40;99.90;;;;;;5034630;28;20466;-71
2022/09/19 04:23:16;;;;;;;5.73;0.70;;;8.50;99.90;;;;;;5034418;28;20406;-71
2022/09/19 04:25:42;;;;;;;5.27;1.30;;;8.50;99.90;;;;;;5034679;28;20878;-71
2022/09/19 04:28:11;;;;;;;6.07;0.90;;;8.50;99.90;;;;;;5034459;28;20854;-71
2022/09/19 04:30:40;;;;;;;7.13;1.00;;;8.50;99.90;;;;;;5034169;28;20434;-71
2022/09/19 04:33:07;;;;;;;7.50;1.33;;;8.50;99.90;;;;;;5032838;28;21045;-71
2022/09/19 04:35:35;;;;;;;1.13;0.70;;;8.50;99.90;;;;;;5034438;28;20418;-71
2022/09/19 04:38:12;;;;;;;4.93;1.07;;;8.60;99.90;;;;;;5034174;28;20440;-71
2022/09/19 04:40:44;;;;;;;4.20;1.03;;;8.60;99.90;;;;;;5034364;28;20476;-71
2022/09/19 04:43:13;;;;;;;1.10;0.67;;;8.60;99.90;;;;;;5032791;28;20422;-71
2022/09/19 04:45:42;;;;;;;3.43;1.47;;;8.60;99.90;;;;;;5034234;28;20412;-72
2022/09/19 04:48:08;;;;;;;2.30;1.03;;;8.60;99.90;;;;;;5033892;28;20412;-72
2022/09/19 04:50:35;;;;;;;7.70;1.20;;;8.60;99.90;;;;;;5034285;28;20529;-71
2022/09/19 04:53:02;;;;;;;6.03;0.97;;;8.60;99.90;;;;;;5033622;28;20177;-71
2022/09/19 04:55:31;;;;;;;1.73;1.57;;;8.70;99.90;;;;;;5033963;28;20497;-71
2022/09/19 04:57:57;;;;;;;1.33;0.90;;;8.70;99.90;;;;;;5033771;28;20413;-71
2022/09/19 05:00:38;;;;;;;3.00;1.00;;;8.70;99.90;;;;;;5033516;28;20410;-70
2022/09/19 05:03:12;;;;;;;5.37;1.20;;;8.70;99.90;;;;;;5033836;28;20769;-70
2022/09/19 05:05:50;;;;;;;4.80;1.10;;;8.70;99.90;;;;;;5033980;28;20416;-70
2022/09/19 05:08:19;;;;;;;5.27;0.90;;;8.80;99.90;;;;;;5033585;28;20398;-69
2022/09/19 05:10:46;;;;;;;4.67;1.40;;;8.80;99.90;;;;;;5032084;28;20872;-70
2022/09/19 05:13:13;;;;;;;13.40;4.00;;;8.80;99.90;;;;;;5032257;28;20847;-70
2022/09/19 05:15:41;;;;;;;4.70;1.83;;;8.80;99.90;;;;;;5033419;28;20516;-69
2022/09/19 05:18:09;;;;;;;2.43;0.87;;;8.80;99.90;;;;;;5033474;28;20413;-70
2022/09/19 05:20:35;;;;;;;1.93;1.23;;;8.90;99.90;;;;;;5033709;28;20971;-70
2022/09/19 05:23:01;;;;;;;2.07;0.80;;;8.90;99.90;;;;;;5032265;28;20422;-70
2022/09/19 05:25:28;;;;;;;6.00;0.70;;;8.90;99.90;;;;;;5032045;28;20420;-70
2022/09/19 05:27:56;;;;;;;5.73;0.97;;;8.90;99.90;;;;;;5033351;28;20228;-70
2022/09/19 05:30:24;;;;;;;8.60;1.00;;;9.00;99.90;;;;;;5033225;28;20895;-70
2022/09/19 05:32:53;;;;;;;3.33;1.47;;;9.00;99.90;;;;;;5032977;28;20480;-70
2022/09/19 05:35:20;;;;;;;4.20;1.10;;;8.90;99.90;;;;;;5033237;28;20449;-70
2022/09/19 05:37:46;;;;;;;4.07;1.70;;;9.00;99.90;;;;;;5033111;28;20422;-70
2022/09/19 05:40:12;;;;;;;8.00;1.23;;;9.00;99.90;;;;;;5032915;28;20406;-70
2022/09/19 05:42:42;;;;;;;5.60;1.13;;;9.00;99.90;;;;;;5032687;28;20206;-70
2022/09/19 05:45:10;;;;;;;11.83;1.00;;;9.10;99.90;;;;;;5033409;28;20424;-70
2022/09/19 05:47:39;;;;;;;6.27;1.37;;;9.10;99.90;;;;;;5032919;28;20421;-70
2022/09/19 05:50:07;;;;;;;6.73;1.40;;;9.20;99.90;;;;;;5033050;28;20417;-70
2022/09/19 05:55:18;;;;;;;6.47;1.23;;;9.30;99.90;;;;;;5032255;28;20765;-72
2022/09/19 05:57:50;;;;;;;5.40;1.07;;;9.30;99.90;;;;;;5032504;28;20411;-72
2022/09/19 06:00:16;;;;;;;13.83;1.67;;;9.30;99.90;;;;;;5032640;28;20184;-72
2022/09/19 06:02:41;;;;;;;6.23;1.10;;;9.40;99.90;;;;;;5032462;28;20403;-70
2022/09/19 06:05:07;;;;;;;6.13;2.20;;;9.40;99.90;;;;;;5033097;28;20205;-70
2022/09/19 06:07:32;;;;;;;5.50;0.93;;;9.50;99.90;;;;;;5032463;28;20681;-69
2022/09/19 06:09:58;;;;;;;5.90;1.07;;;9.50;99.90;;;;;;5032769;28;20204;-70
2022/09/19 06:12:24;;;;;;;1.10;1.00;;;9.50;99.90;;;;;;5032301;28;20207;-70
2022/09/19 06:14:49;;;;;;;3.63;0.90;;;9.60;99.90;;;;;;5032665;28;20199;-70
2022/09/19 06:17:16;;;;;;;5.83;2.00;;;9.70;99.90;;;;;;5032317;28;20577;-72
2022/09/19 06:19:42;;;;;;;4.10;1.30;;;9.80;99.90;;;;;;5032254;28;20650;-69
2022/09/19 06:22:07;;;;;;;7.90;1.00;;;9.90;99.90;;;;;;5031712;28;20526;-69
2022/09/19 06:24:33;;;;;;;10.90;1.83;;;10.00;99.90;;;;;;5032073;28;20227;-69
2022/09/19 06:27:01;;;;;;;5.90;0.80;;;10.10;99.90;;;;;;5031638;28;20179;-69
2022/09/19 06:29:30;;;;;;;2.13;1.10;;;10.10;99.90;;;;;;5031839;28;20270;-69
2022/09/19 06:31:55;;;;;;;9.17;1.00;;;10.20;99.90;;;;;;5031235;28;20517;-70
2022/09/19 06:34:21;;;;;;;8.40;1.10;;;10.20;99.90;;;;;;5031679;28;20857;-70
2022/09/19 06:36:47;;;;;;;6.67;0.93;;;10.20;99.90;;;;;;5031587;28;20260;-69
2022/09/19 06:39:16;;;;;;;4.33;1.20;;;10.30;99.90;;;;;;5031462;28;20205;-70
2022/09/19 06:41:41;;;;;;;4.83;1.17;;;10.30;99.90;;;;;;5031545;28;20571;-69
2022/09/19 06:44:07;;;;;;;8.13;1.60;;;10.30;99.90;;;;;;5030067;28;20420;-69
2022/09/19 06:46:37;;;;;;;11.30;2.97;;;10.40;99.90;;;;;;5031382;28;20181;-69
2022/09/19 06:49:02;;;;;;;3.43;1.40;;;10.40;99.90;;;;;;5031405;28;20174;-69
2022/09/19 06:51:29;;;;;;;6.90;1.30;;;10.50;99.90;;;;;;5031367;28;21004;-70
2022/09/19 06:53:54;;;;;;;7.40;1.47;;;10.50;99.90;;;;;;5031341;28;20180;-69
2022/09/19 06:56:20;;;;;;;5.37;1.23;;;10.50;99.90;;;;;;5031053;28;20502;-70
2022/09/19 06:58:45;;;;;;;8.17;1.90;;;10.50;99.90;;;;;;5031289;28;20172;-69
2022/09/19 07:01:11;;;;;;;2.43;1.20;;;10.50;99.90;;;;;;5031109;28;20614;-69
2022/09/19 07:03:36;;;;;;;9.40;1.30;;;10.60;99.90;;;;;;5031332;28;20632;-72
2022/09/19 07:06:02;;;;;;;6.30;1.57;;;10.60;99.90;;;;;;5031280;28;20177;-73
2022/09/19 07:08:28;;;;;;;4.93;1.20;;;10.70;99.90;;;;;;5031080;28;20184;-72
2022/09/19 07:10:56;;;;;;;7.33;1.30;;;10.70;99.90;;;;;;5031299;28;20250;-73
2022/09/19 07:13:22;;;;;;;5.70;1.17;;;10.80;99.90;;;;;;5031088;28;20177;-73
2022/09/19 07:15:48;;;;;;;9.20;1.40;;;10.80;99.90;;;;;;5031136;28;20458;-73
2022/09/19 07:18:14;;;;;;;2.50;1.03;;;10.80;99.90;;;;;;5031141;28;20182;-73
2022/09/19 07:20:40;;;;;;;4.83;1.57;;;10.80;99.90;;;;;;5031117;28;20770;-73
2022/09/19 07:23:13;;;;;;;6.40;1.77;;;10.80;99.90;;;;;;5031041;28;20176;-73
2022/09/19 07:25:42;;;;;;;10.83;1.83;;;10.80;99.90;;;;;;5031123;28;20416;-73
2022/09/19 07:28:17;;;;;;;11.33;1.30;;;10.70;99.90;;;;;;5030864;28;20428;-73
2022/09/19 07:30:43;;;;;;;9.50;1.50;;;10.80;99.90;;;;;;5029659;28;20447;-72
2022/09/19 07:33:11;;;;;;;11.23;1.77;;;10.90;99.90;;;;;;5030781;28;20435;-73
2022/09/19 07:35:41;;;;;;;4.20;1.10;;;10.90;99.90;;;;;;5030910;28;20412;-73
2022/09/19 07:38:09;;;;;;;7.70;1.67;;;11.00;99.90;;;;;;5030999;28;20415;-72
2022/09/19 07:40:34;;;;;;;7.93;1.47;;;10.90;99.90;;;;;;5031021;28;20436;-72
2022/09/19 07:43:03;;;;;;;4.60;1.40;;;11.00;99.90;;;;;;5031110;28;20417;-72
2022/09/19 07:45:38;;;;;;;11.00;2.13;;;11.00;99.90;;;;;;5030611;28;20647;-72
2022/09/19 07:48:04;;;;;;;1.83;1.03;;;11.00;99.90;;;;;;5030845;28;20419;-72
2022/09/19 07:50:31;;;;;;;8.10;2.03;;;11.00;99.90;;;;;;5031038;28;20927;-73
2022/09/19 07:53:01;;;;;;;4.83;1.20;;;11.10;99.90;;;;;;5030861;28;20470;-72
2022/09/19 07:55:27;;;;;;;9.30;1.60;;;11.20;99.90;;;;;;5030810;28;20415;-73
2022/09/19 07:57:55;;;;;;;4.60;1.23;;;11.20;99.90;;;;;;5030920;28;20908;-72
2022/09/19 08:00:22;;;;;;;9.53;1.20;;;11.40;99.90;;;;;;5030543;28;20803;-72
2022/09/19 08:02:59;;;;;;;8.73;1.70;;;11.50;99.90;;;;;;5030810;28;20409;-72
2022/09/19 08:05:29;;;;;;;5.17;1.93;;;11.50;99.90;;;;;;5032245;28;20442;-72
2022/09/19 08:07:59;;;;;;;7.07;1.50;;;11.50;99.90;;;;;;5034488;28;20809;-73
2022/09/19 08:10:25;;;;;;;5.80;1.20;;;11.50;99.90;;;;;;5034394;28;20909;-73
2022/09/19 08:12:50;;;;;;;10.00;2.23;;;11.50;99.90;;;;;;5034213;28;20498;-73
2022/09/19 08:15:20;;;;;;;6.83;1.23;;;11.50;99.90;;;;;;5034192;28;20188;-73
2022/09/19 08:17:59;;;;;;;7.57;2.00;;;11.50;99.90;;;;;;5034325;28;20174;-73
2022/09/19 08:20:31;;;;;;;12.23;1.70;;;11.50;99.90;;;;;;5034138;28;20851;-73
2022/09/19 08:23:05;;;;;;;6.77;1.27;;;11.50;99.90;;;;;;5034362;28;20439;-73
2022/09/19 08:25:32;;;;;;;12.60;1.77;;;11.60;99.90;;;;;;5034512;28;20422;-72
2022/09/19 08:27:58;;;;;;;5.17;1.10;;;11.50;99.90;;;;;;5033879;28;20754;-73
2022/09/19 08:30:27;;;;;;;4.63;1.47;;;11.60;99.90;;;;;;5033957;28;20428;-73
2022/09/19 08:32:52;;;;;;;3.10;1.27;;;11.60;99.90;;;;;;5033637;28;20468;-73
2022/09/19 08:35:19;;;;;;;12.93;1.80;;;11.80;99.90;;;;;;5033676;28;20751;-73
2022/09/19 08:37:46;;;;;;;5.57;1.50;;;12.10;99.90;;;;;;5034001;28;20638;-73
2022/09/19 08:40:18;;;;;;;6.20;1.80;;;12.40;99.90;;;;;;5033673;28;20420;-73
2022/09/19 08:42:58;;;;;;;9.60;1.80;;;12.60;99.90;;;;;;5033985;28;20459;-72
2022/09/19 08:45:59;;;;;;;6.30;1.37;;;12.70;99.90;;;;;;5033648;28;20479;-72
2022/09/19 08:48:45;;;;;;;8.10;1.73;;;12.90;99.90;;;;;;5033698;28;20418;-73
2022/09/19 08:51:19;;;;;;;11.97;1.97;;;12.80;99.90;;;;;;5029360;28;20883;-72
2022/09/19 08:53:49;;;;;;;5.50;1.33;;;12.70;99.90;;;;;;5033729;28;20408;-72
2022/09/19 08:56:18;;;;;;;10.97;1.50;;;12.80;99.90;;;;;;5033393;28;20412;-73
2022/09/19 08:58:54;;;;;;;8.53;1.47;;;12.80;99.90;;;;;;5033398;28;20409;-73
2022/09/19 09:01:21;;;;;;;7.33;2.10;;;12.60;99.90;;;;;;5033131;28;20960;-73
2022/09/19 09:04:16;;;;;;;7.70;1.30;;;12.50;99.90;;;;;;5033263;28;20444;-72
2022/09/19 09:07:13;;;;;;;6.40;1.90;;;12.50;99.90;;;;;;5033417;28;20404;-72
2022/09/19 09:09:54;;;;;;;8.80;1.67;;;12.40;99.90;;;;;;5033318;28;20915;-72
2022/09/19 09:12:38;;;;;;;4.33;1.30;;;12.50;99.90;;;;;;5032824;28;20478;-73
2022/09/19 09:15:24;;;;;;;6.40;1.53;;;12.50;99.90;;;;;;5033075;28;20779;-73
2022/09/19 09:18:05;;;;;;;8.10;1.60;;;12.50;99.90;;;;;;5032153;28;20477;-72
2022/09/19 09:20:41;;;;;;;2.00;1.30;;;12.60;99.90;;;;;;5033071;28;20424;-73
2022/09/19 09:23:19;;;;;;;9.83;2.03;;;12.60;99.90;;;;;;5032884;28;20416;-72
2022/09/19 09:25:49;;;;;;;10.07;1.53;;;12.60;99.90;;;;;;5032859;28;20421;-72
2022/09/19 09:28:43;;;;;;;4.30;1.83;;;12.60;99.90;;;;;;5032912;28;20416;-72
2022/09/19 09:31:24;;;;;;;4.77;1.17;;;12.50;99.90;;;;;;5032240;28;20480;-72
2022/09/19 09:34:02;;;;;;;4.63;1.60;;;12.50;99.90;;;;;;5032868;28;20451;-72
2022/09/19 09:36:35;;;;;;;3.90;1.40;;;12.60;99.90;;;;;;5032736;28;20411;-73
2022/09/19 09:39:12;;;;;;;5.17;1.07;;;12.60;99.90;;;;;;5032619;28;20421;-72
2022/09/19 09:41:49;;;;;;;4.83;1.60;;;12.70;99.90;;;;;;5032719;28;20523;-72
2022/09/19 09:44:17;;;;;;;7.70;1.93;;;12.60;99.90;;;;;;5032426;28;20420;-73
2022/09/19 09:46:48;;;;;;;4.20;2.00;;;12.50;99.90;;;;;;5032525;28;20412;-73
2022/09/19 09:49:14;;;;;;;4.50;1.20;;;12.60;99.90;;;;;;5032295;28;20416;-72
2022/09/19 09:51:54;;;;;;;4.60;2.03;;;12.60;99.90;;;;;;5031030;28;20923;-73
2022/09/19 09:57:41;;;;;;;4.07;1.47;;;12.90;99.90;;;;;;5032096;28;20407;-73
2022/09/19 10:06:17;;;;;;;2.40;1.30;;;13.60;99.90;;;;;;4992779;28;20446;-73
2022/09/19 10:09:02;;;;;;;3.50;1.30;;;13.70;99.90;;;;;;4993009;28;20428;-72
2022/09/19 10:12:06;;;;;;;3.70;1.40;;;13.90;99.90;;;;;;4992468;28;20473;-73
2022/09/19 10:14:35;;;;;;;7.80;1.43;;;14.50;99.90;;;;;;4992991;28;20406;-72
2022/09/19 10:17:04;;;;;;;5.47;1.33;;;14.80;99.90;;;;;;4992679;28;20845;-73
2022/09/19 10:19:39;;;;;;;6.87;1.67;;;15.00;99.90;;;;;;4992719;28;20407;-72
2022/09/19 10:22:14;;;;;;;5.00;1.47;;;14.80;99.90;;;;;;4992350;28;20945;-73
2022/09/19 10:24:41;;;;;;;3.63;1.33;;;14.50;99.90;;;;;;4993468;28;20786;-73
2022/09/19 10:27:25;;;;;;;2.53;1.33;;;14.20;99.90;;;;;;4992165;28;20893;-74
2022/09/19 10:29:58;;;;;;;8.40;2.17;;;14.10;99.90;;;;;;4992627;28;20902;-71
2022/09/19 10:32:36;;;;;;;6.43;1.80;;;14.00;99.90;;;;;;4992314;28;20482;-71
2022/09/19 10:35:33;;;;;;;2.33;1.30;;;14.00;99.90;;;;;;4992331;28;20410;-71
2022/09/19 10:38:13;;;;;;;4.67;1.10;;;14.00;99.90;;;;;;4992343;28;20414;-71
2022/09/19 10:41:01;;;;;;;8.40;1.63;;;14.00;99.90;;;;;;4992259;28;20588;-71
2022/09/19 10:43:31;;;;;;;3.87;1.13;;;14.10;99.90;;;;;;4992372;28;20418;-71
2022/09/19 10:46:05;;;;;;;4.60;1.30;;;14.30;99.90;;;;;;4992996;28;20419;-74
2022/09/19 10:48:33;;;;;;;3.67;0.90;;;14.50;99.90;;;;;;4992164;28;20914;-74
2022/09/19 10:50:59;;;;;;;7.20;1.27;;;14.70;99.90;;;;;;4992079;28;20454;-74
2022/09/19 10:53:32;;;;;;;1.40;0.90;;;14.80;99.90;;;;;;4991977;28;20419;-74
2022/09/19 10:56:02;;;;;;;3.53;1.30;;;14.90;99.90;;;;;;4991043;28;20429;-72
2022/09/19 10:58:35;;;;;;;4.07;0.97;;;14.90;99.90;;;;;;4991968;28;20429;-71
2022/09/19 11:01:05;;;;;;;1.27;1.00;;;14.80;99.90;;;;;;4992693;28;20438;-75
2022/09/19 11:03:32;;;;;;;5.90;1.00;;;14.70;99.90;;;;;;4992404;28;20473;-71
2022/09/19 11:06:03;;;;;;;7.57;0.90;;;14.70;99.90;;;;;;4992337;28;20433;-71
2022/09/19 11:08:30;;;;;;;4.20;1.47;;;14.60;99.90;;;;;;4992238;28;20473;-71
2022/09/19 11:10:56;;;;;;;5.03;1.40;;;14.40;99.90;;;;;;4992193;28;20438;-74
2022/09/19 11:13:24;;;;;;;7.30;1.20;;;14.40;99.90;;;;;;4991925;28;20423;-74
2022/09/19 11:16:39;;;;;;;7.50;0.97;;;14.50;99.90;;;;;;4992461;28;20849;-73
2022/09/19 11:19:16;;;;;;;5.83;1.53;;;14.50;99.90;;;;;;4989003;28;20426;-74
2022/09/19 11:22:10;;;;;;;3.77;1.10;;;14.40;99.90;;;;;;4992213;28;20442;-73
2022/09/19 11:24:57;;;;;;;2.90;1.27;;;14.40;99.90;;;;;;4992381;28;20531;-73
2022/09/19 11:27:50;;;;;;;3.00;1.30;;;14.30;99.90;;;;;;4991940;28;20422;-74
2022/09/19 11:30:20;;;;;;;2.50;1.13;;;14.20;99.90;;;;;;4991777;28;20966;-74
2022/09/19 11:33:21;;;;;;;2.37;1.00;;;14.20;99.90;;;;;;4992017;28;20458;-73
2022/09/19 11:36:04;;;;;;;3.90;1.33;;;14.20;99.90;;;;;;4991923;28;20417;-73
2022/09/19 11:38:51;;;;;;;5.73;1.50;;;14.30;99.90;;;;;;4991665;28;20761;-73
2022/09/19 11:41:32;;;;;;;1.57;1.17;;;14.30;99.90;;;;;;4995305;28;20442;-73
2022/09/19 11:44:15;;;;;;;5.17;1.10;;;14.20;99.90;;;;;;5000840;28;20620;-73
2022/09/19 11:46:54;;;;;;;2.80;0.90;;;14.10;99.90;;;;;;4999301;28;20431;-72
2022/09/19 11:49:51;;;;;;;1.23;0.83;;;14.10;99.90;;;;;;4997864;28;20437;-72
2022/09/19 11:52:46;;;;;;;2.87;1.10;;;14.00;99.90;;;;;;4999403;28;20466;-72
2022/09/19 11:55:43;;;;;;;1.33;0.77;;;14.00;99.90;;;;;;4999061;28;20453;-74
2022/09/19 11:58:29;;;;;;;4.70;1.30;;;13.90;99.90;;;;;;4997982;28;20853;-76
2022/09/19 12:01:17;;;;;;;3.00;1.00;;;13.90;99.90;;;;;;4997749;28;20812;-72
2022/09/19 12:04:01;;;;;;;2.67;0.93;;;14.00;99.90;;;;;;4999342;28;20427;-74
2022/09/19 12:07:12;;;;;;;7.23;1.23;;;14.10;99.90;;;;;;4999147;28;20410;-74
2022/09/19 12:10:13;;;;;;;1.77;0.90;;;14.30;99.90;;;;;;4998474;28;20407;-74
2022/09/19 12:12:43;;;;;;;3.37;0.80;;;14.40;99.90;;;;;;5025833;22;20502;-74
2022/09/19 12:15:28;;;;;;;3.70;1.03;;;14.60;99.90;;;;;;5015455;28;20414;-74
2022/09/19 12:18:07;;;;;;;1.97;0.90;;;14.80;99.90;;;;;;5015086;28;20414;-74
2022/09/19 12:20:41;;;;;;;3.10;0.60;;;15.10;99.90;;;;;;5014787;28;20431;-74
2022/09/19 12:26:21;;;;;;;4.53;1.10;;;15.90;99.90;;;;;;5014749;28;20484;-74
2022/09/19 12:28:54;;;;;;;3.23;0.70;;;16.50;99.90;;;;;;5015290;28;20500;-73
2022/09/19 12:31:28;;;;;;;1.37;1.03;;;17.00;99.90;;;;;;5014179;28;20887;-74
2022/09/19 12:34:07;;;;;;;3.93;0.80;;;17.30;99.90;;;;;;5013434;28;20428;-72
2022/09/19 12:36:46;;;;;;;0.90;0.80;;;17.30;99.90;;;;;;5014524;28;20421;-72
2022/09/19 12:39:14;;;;;;;2.67;0.67;;;17.10;99.90;;;;;;5015306;28;20409;-71
2022/09/19 12:41:57;;;;;;;2.33;0.83;;;17.00;99.90;;;;;;5014775;28;20434;-71
2022/09/19 12:44:39;;;;;;;1.80;0.67;;;16.90;99.90;;;;;;5013775;28;20420;-71
2022/09/19 12:47:36;;;;;;;1.30;0.80;;;16.60;99.90;;;;;;5013705;28;20776;-71
2022/09/19 12:50:27;;;;;;;4.83;1.10;;;16.50;99.90;;;;;;5013713;28;20456;-71
2022/09/19 12:53:31;;;;;;;4.50;0.90;;;16.40;99.90;;;;;;5013467;28;20464;-71
2022/09/19 12:56:21;;;;;;;3.20;1.00;;;16.30;99.90;;;;;;5012448;28;20420;-71
2022/09/19 12:59:05;;;;;;;4.67;1.30;;;16.10;99.90;;;;;;5012285;28;20426;-71
2022/09/19 13:01:47;;;;;;;2.93;1.40;;;16.10;99.90;;;;;;5013534;28;20960;-71
2022/09/19 13:04:28;;;;;;;3.00;1.00;;;16.00;99.90;;;;;;5013270;28;20421;-71
2022/09/19 13:07:18;;;;;;;3.60;1.10;;;15.90;99.90;;;;;;5013478;28;20417;-71
2022/09/19 13:09:53;;;;;;;3.50;0.97;;;15.90;99.90;;;;;;5006159;28;20429;-72
2022/09/19 13:12:29;;;;;;;5.47;1.60;;;15.90;99.90;;;;;;5013022;28;21054;-72
2022/09/19 13:14:57;;;;;;;3.70;0.80;;;15.80;99.90;;;;;;5013458;28;20925;-71
2022/09/19 13:23:35;;;;;;;2.40;0.90;;;15.40;99.90;;;;;;5013476;28;20441;-71
2022/09/19 13:26:16;;;;;;;4.03;1.90;;;15.40;99.90;;;;;;5013303;28;20441;-70
2022/09/19 13:28:53;;;;;;;4.40;1.50;;;15.50;99.90;;;;;;5013165;28;20413;-71
2022/09/19 13:31:24;;;;;;;2.73;1.10;;;15.80;99.90;;;;;;5012831;28;20527;-71
2022/09/19 13:33:58;;;;;;;1.77;1.27;;;16.10;99.90;;;;;;5012976;28;20416;-70
2022/09/19 13:36:23;;;;;;;4.40;0.90;;;16.20;99.90;;;;;;5012813;28;20405;-71
2022/09/19 13:38:58;;;;;;;15.23;1.70;;;16.10;99.90;;;;;;5011583;28;20524;-71
2022/09/19 13:41:41;;;;;;;3.23;0.80;;;15.90;99.90;;;;;;5012984;28;20233;-71
2022/09/19 13:44:25;;;;;;;3.77;1.13;;;15.90;99.90;;;;;;5012788;28;20560;-71
2022/09/19 13:47:09;;;;;;;4.37;0.80;;;15.90;99.90;;;;;;5013039;28;20414;-71
2022/09/19 13:49:41;;;;;;;2.30;0.80;;;16.00;99.90;;;;;;5012619;28;20418;-71
2022/09/19 13:52:14;;;;;;;3.17;1.10;;;16.20;99.90;;;;;;5011144;28;20465;-71
2022/09/19 13:55:08;;;;;;;3.87;1.00;;;16.40;99.90;;;;;;5012529;28;20564;-71
2022/09/19 13:57:39;;;;;;;3.83;1.00;;;16.60;99.90;;;;;;5012556;28;20437;-71
2022/09/19 14:00:32;;;;;;;2.10;0.70;;;16.70;99.90;;;;;;5012570;28;20929;-71
2022/09/19 14:03:36;;;;;;;3.23;0.97;;;16.60;99.90;;;;;;5012255;28;20406;-71
2022/09/19 14:06:22;;;;;;;2.17;1.10;;;16.50;99.90;;;;;;4989410;28;20472;-70
2022/09/19 14:09:40;;;;;;;13.03;1.10;;;16.40;99.90;;;;;;5012557;28;20469;-71
2022/09/19 14:12:38;;;;;;;1.33;0.80;;;16.50;99.90;;;;;;4989314;28;20481;-74
2022/09/19 14:15:28;;;;;;;1.57;0.73;;;16.60;99.90;;;;;;5012425;28;20422;-74
2022/09/19 14:18:29;;;;;;;3.73;1.30;;;16.60;99.90;;;;;;5012367;28;20405;-74
2022/09/19 14:21:08;;;;;;;1.33;1.03;;;16.50;99.90;;;;;;5010905;28;20437;-75
2022/09/19 14:23:41;;;;;;;1.03;0.60;;;16.50;99.90;;;;;;5012297;28;20412;-75
2022/09/19 14:26:12;;;;;;;2.07;1.20;;;16.20;99.90;;;;;;5012135;28;21071;-74
2022/09/19 14:28:41;;;;;;;0.70;0.40;;;16.10;99.90;;;;;;5012512;28;20457;-75
2022/09/19 14:31:15;;;;;;;1.23;0.80;;;15.70;99.90;;;;;;5011745;28;20440;-75
2022/09/19 14:34:14;;;;;;;3.80;0.60;;;15.50;99.90;;;;;;5012225;28;20410;-75
2022/09/19 14:36:53;;;;;;;1.07;0.60;;;15.40;99.90;;;;;;5003180;28;20421;-74
2022/09/19 14:39:52;;;;;;;1.87;0.90;;;15.20;99.90;;;;;;5011766;28;20405;-75
2022/09/19 14:42:33;;;;;;;1.43;0.80;;;15.00;99.90;;;;;;5011559;28;20483;-75
2022/09/19 14:45:10;;;;;;;4.87;0.90;;;14.90;99.90;;;;;;5012018;28;20484;-75
2022/09/19 14:47:38;;;;;;;0.60;0.60;;;14.70;99.90;;;;;;5011938;28;20529;-75
2022/09/19 14:50:19;;;;;;;1.07;0.77;;;14.40;99.90;;;;;;5011640;28;20417;-75
2022/09/19 14:53:03;;;;;;;2.20;0.63;;;14.30;99.90;;;;;;5012085;28;20461;-74
2022/09/19 14:55:41;;;;;;;1.40;1.10;;;14.20;99.90;;;;;;5012357;28;20449;-74
2022/09/19 14:58:32;;;;;;;0.70;0.70;;;14.00;99.90;;;;;;5012140;28;20417;-75
2022/09/19 15:01:10;;;;;;;3.03;0.70;;;13.90;99.90;;;;;;5012414;28;20426;-74
2022/09/19 15:03:56;;;;;;;0.70;0.60;;;13.90;99.90;;;;;;5010688;28;20466;-74
2022/09/19 15:06:35;;;;;;;3.23;1.10;;;13.80;99.90;;;;;;5012004;28;20939;-74
2022/09/19 15:09:01;;;;;;;4.97;1.00;;;13.70;99.90;;;;;;5011946;28;20418;-74
2022/09/19 15:11:29;;;;;;;0.93;0.70;;;13.70;99.90;;;;;;5011791;28;20479;-74
2022/09/19 15:13:55;;;;;;;1.37;0.73;;;13.70;99.90;;;;;;5012022;28;20487;-74
2022/09/19 15:16:22;;;;;;;0.60;0.60;;;13.60;99.90;;;;;;5014932;28;20982;-74
2022/09/19 15:18:51;;;;;;;3.03;0.90;;;13.50;99.90;;;;;;5015935;28;20801;-74
2022/09/19 15:21:27;;;;;;;2.50;1.00;;;13.50;99.90;;;;;;5015869;28;20425;-74
2022/09/19 15:24:01;;;;;;;1.50;1.00;;;13.50;99.90;;;;;;5015950;28;20441;-74